ADDS METAR Data INFO
IDs: Format: Raw Decoded Include TAF

Data at: 0053 UTC 22 Oct 2017

KTKC 220033Z AUTO 28010G15KT 10SM BKN085 BKN110 12/06 A2983 RMK AO2 LTG DSNT SE T01200064
KTKC 220013Z AUTO 28005KT 10SM BKN085 OVC110 12/07 A2981 RMK AO2 LTG DSNT SE T01230066
KTKC 212353Z AUTO 29006KT 10SM OVC075 13/07 A2980 RMK AO2 LTG DSNT SE 60003 T01260066 10232 20125
KTKC 212333Z AUTO 31007KT 10SM OVC065 13/07 A2977 RMK AO2 LTG DSNT SE T01260066
KTKC 212313Z AUTO 30007KT 10SM OVC065 13/07 A2977 RMK AO2 T01310070
KTKC 212253Z AUTO 29011G18KT 10SM OVC055 13/07 A2975 RMK AO2 LTG DSNT NE T01340068
KTKC 212233Z AUTO 28011G18KT 10SM OVC055 14/07 A2973 RMK AO2 T01400074
KTKC 212213Z AUTO 29009G17KT 10SM OVC049 14/08 A2971 RMK AO2 LTG DSNT N AND NE T01400078
KTKC 212153Z AUTO 28011G16KT 10SM OVC047 14/08 A2972 RMK AO2 LTG DSNT NE AND E T01430079
KTKC 212133Z AUTO 28011G18KT 10SM BKN045 BKN050 OVC100 15/08 A2970 RMK AO2 T01450083
KTKC 212113Z AUTO 29013G19KT 10SM SCT046 BKN050 OVC100 15/09 A2968 RMK AO2 LTG DSNT NE T01460089
KTKC 212053Z AUTO 29012G19KT 10SM VCTS BKN047 OVC055 15/10 A2966 RMK AO2 LTG DSNT E 60003 T01450099
KTKC 212033Z AUTO 29009G16KT 10SM SCT036 SCT046 BKN070 15/11 A2964 RMK AO2 T01460105
KTKC 212013Z AUTO 29010G18KT 10SM VCTS SCT038 SCT050 BKN100 15/11 A2963 RMK AO2 LTG DSNT NE T01520110
KTKC 211954Z AUTO 28008G16KT 10SM BKN038 BKN043 OVC050 15/12 A2961 RMK AO2 LTG DSNT NE P0003 T01460115
KTKC 211933Z AUTO 26012G18KT 7SM -RA SCT026 BKN038 OVC048 17/14 A2960 RMK AO2 P0003 T01660144
KTKC 211913Z AUTO 26008G24KT 7SM RA SCT023 BKN027 OVC046 20/17 A2957 RMK AO2 LTG DSNT N AND E P0001 T02020171
KTKC 211853Z AUTO 18011G20KT 10SM BKN027 BKN033 BKN039 22/18 A2956 RMK AO2 T02210176
KTKC 211833Z AUTO 19013G20KT 10SM SCT023 BKN031 BKN037 23/18 A2955 RMK AO2 LTG DSNT SW THRU NW T02280178
KTKC 211813Z AUTO 19016G23KT 10SM VCTS BKN023 OVC029 22/18 A2957 RMK AO2 T02170175
KTKC 211753Z AUTO 18019G26KT 10SM SCT024 BKN030 BKN036 22/18 A2957 RMK AO2 T02190176 10220 20178
KTKC 211733Z AUTO 18015G21KT 10SM SCT022 BKN027 BKN035 22/18 A2957 RMK AO2 T02160175
KTKC 211713Z AUTO 19010G20KT 10SM OVC020 21/18 A2957 RMK AO2 T02110175
KTKC 211653Z AUTO 17013G18KT 10SM BKN018 OVC026 21/18 A2957 RMK AO2 T02090176
KTKC 211633Z AUTO 18013G21KT 10SM SCT016 BKN021 OVC031 21/18 A2957 RMK AO2 T02050175
KTKC 211613Z AUTO 18015G23KT 10SM BKN017 BKN024 OVC029 20/17 A2957 RMK AO2 LTG DSNT E T02030173
KTKC 211553Z AUTO 18021G26KT 10SM BKN017 OVC024 20/17 A2957 RMK AO2 T01980171
KTKC 211533Z AUTO 18018G25KT 10SM BKN015 BKN060 OVC070 20/17 A2957 RMK AO2 T01980171
KTKC 211513Z AUTO 18018G29KT 10SM SCT015 19/17 A2957 RMK AO2 T01920168
KTKC 211453Z AUTO 18016G24KT 10SM SCT013 SCT055 SCT065 19/17 A2956 RMK AO2 T01910168
KTKC 211433Z AUTO 18018G25KT 10SM SCT011 BKN045 OVC065 19/17 A2957 RMK AO2 LTG DSNT E T01920167
KTKC 211413Z AUTO 18016G23KT 10SM SCT011 BKN035 BKN046 18/17 A2956 RMK AO2 LTG DSNT E T01820165
KTKC 211353Z AUTO 18018G24KT 10SM SCT011 SCT070 18/16 A2955 RMK AO2 LTG DSNT E AND SE T01800161
KTKC 211333Z AUTO 17016G23KT 10SM BKN070 18/16 A2955 RMK AO2 T01790158
KTKC 211313Z AUTO 18017G24KT 10SM BKN070 18/16 A2956 RMK AO2 LTG DSNT NE THRU S T01810155
KTKC 211253Z AUTO 18017G30KT 10SM SCT028 SCT047 BKN060 18/15 A2955 RMK AO2 LTG DSNT NE T01830154
KTKC 211233Z AUTO 17017G24KT 10SM SCT020 BKN027 OVC047 19/15 A2955 RMK AO2 LTG DSNT E T01850153
KTKC 211214Z AUTO 18012G17KT 10SM BKN020 OVC027 19/16 A2956 RMK AO2 LTG DSNT E T01870158
KTKC 211153Z AUTO 17015G22KT 10SM BKN022 BKN027 19/16 A2955 RMK AO2 LTG DSNT SW T01860156 10189 20177
KTKC 211133Z AUTO 17018G24KT 10SM SCT024 18/15 A2954 RMK AO2 LTG DSNT SE T01810152
KTKC 211113Z AUTO 18015G26KT 10SM CLR 18/15 A2955 RMK AO2 LTG DSNT E AND SE T01800150
KTKC 211053Z AUTO 18014G24KT 10SM CLR 18/15 A2954 RMK AO2 LTG DSNT SE T01780148
KTKC 211033Z AUTO 18012G23KT 10SM CLR 18/15 A2954 RMK AO2 LTG DSNT E AND SE T01780147
KTKC 211013Z AUTO 18014G22KT 10SM CLR 18/15 A2953 RMK AO2 LTG DSNT SE T01800146
KTKC 210953Z AUTO 19015G27KT 10SM CLR 18/15 A2953 RMK AO2 LTG DSNT SE T01800147
KTKC 210933Z AUTO 18021G25KT 10SM CLR 18/15 A2953 RMK AO2 T01800147
KTKC 210913Z AUTO 19016G24KT 10SM CLR 18/15 A2953 RMK AO2 T01800147
KTKC 210853Z AUTO 19015G25KT 10SM CLR 18/15 A2953 RMK AO2 T01810148
KTKC 210833Z AUTO 18015G24KT 10SM CLR 18/15 A2955 RMK AO2 T01800146
KTKC 210813Z AUTO 19017G23KT 10SM CLR 18/15 A2955 RMK AO2 T01800146
KTKC 210754Z AUTO 19017G25KT 10SM CLR 18/15 A2956 RMK AO2 T01790145
KTKC 210733Z AUTO 18016G29KT 10SM CLR 18/15 A2957 RMK AO2 LTG DSNT S T01800145
KTKC 210713Z AUTO 18019G24KT 10SM CLR 18/15 A2957 RMK AO2 T01800145
KTKC 210653Z AUTO 18017G24KT 10SM CLR 18/15 A2957 RMK AO2 T01820145
KTKC 210633Z AUTO 19019G24KT 10SM CLR 19/15 A2957 RMK AO2 T01850145
KTKC 210610Z AUTO 18018G25KT 10SM CLR 19/15 A2958 RMK AO2 T01890145
KTKC 210553Z AUTO 18016G24KT 10SM CLR 19/15 A2958 RMK AO2 T01900146 10218 20187 402580143
KTKC 210533Z AUTO 18019G29KT 10SM CLR 19/15 A2959 RMK AO2 T01910146
KTKC 210513Z AUTO 18016G25KT 10SM CLR 19/15 A2960 RMK AO2 T01910146
KTKC 210453Z AUTO 18018G25KT 10SM CLR 19/15 A2960 RMK AO2 T01920146
KTKC 210433Z AUTO 18017G22KT 10SM CLR 19/15 A2960 RMK AO2 T01870145
KTKC 210413Z AUTO 17016G23KT 10SM CLR 19/14 A2961 RMK AO2 T01880144
KTKC 210353Z AUTO 17018G24KT 10SM CLR 19/14 A2961 RMK AO2 T01910143
KTKC 210333Z AUTO 17015G22KT 10SM SCT050 19/14 A2962 RMK AO2 T01930143
KTKC 210313Z AUTO 17015G21KT 10SM SCT055 20/14 A2962 RMK AO2 T01960144
KTKC 210253Z AUTO 17015G22KT 10SM SCT055 BKN065 20/14 A2962 RMK AO2 T02000144
KTKC 210234Z AUTO 17013G23KT 10SM OVC065 20/14 A2962 RMK AO2 T02030143
KTKC 210213Z AUTO 18015G20KT 10SM OVC055 21/14 A2962 RMK AO2 T02050143
KTKC 210153Z AUTO 18015G24KT 10SM SCT047 OVC055 21/14 A2962 RMK AO2 T02060142
KTKC 210133Z AUTO 17015G22KT 10SM SCT050 BKN055 21/14 A2962 RMK AO2 T02060140
KTKC 210113Z AUTO 17018G21KT 10SM CLR 20/14 A2963 RMK AO2 T02040138
KTKC 210053Z AUTO 18013G20KT 10SM CLR 21/14 A2962 RMK AO2 T02060138
KTKC 210033Z AUTO 18013G18KT 10SM CLR 21/14 A2962 RMK AO2 T02100140
KTKC 210014Z AUTO 18015G25KT 10SM CLR 22/14 A2962 RMK AO2 T02160141
KTKC 202353Z AUTO 18017G25KT 10SM CLR 22/14 A2962 RMK AO2 T02190139 10258 20219
KTKC 202333Z AUTO 17019G26KT 10SM CLR 22/13 A2961 RMK AO2 T02230132
KTKC 202313Z AUTO 18015G23KT 10SM CLR 23/13 A2961 RMK AO2 T02280128
KTKC 202253Z AUTO 17017G22KT 10SM CLR 23/13 A2961 RMK AO2 T02320125
KTKC 202233Z AUTO 18017G26KT 10SM CLR 24/12 A2962 RMK AO2 T02350124
KTKC 202213Z AUTO 18015G27KT 10SM CLR 24/12 A2962 RMK AO2 T02410121
KTKC 202153Z AUTO 18017G30KT 10SM CLR 25/12 A2963 RMK AO2 T02450123
KTKC 202133Z AUTO 18018G29KT 10SM CLR 25/12 A2964 RMK AO2 T02500124
KTKC 202113Z AUTO 19019G28KT 10SM CLR 25/13 A2964 RMK AO2 T02500127
KTKC 202053Z AUTO 18015G30KT 10SM CLR 25/13 A2965 RMK AO2 T02500127
KTKC 202033Z AUTO 17019G28KT 10SM CLR 25/13 A2965 RMK AO2 T02520133
KTKC 202013Z AUTO 19017G28KT 10SM CLR 26/13 A2965 RMK AO2 T02580127
KTKC 201953Z AUTO 19020G29KT 10SM CLR 25/14 A2966 RMK AO2 T02510136
KTKC 201933Z AUTO 19017G27KT 10SM CLR 25/13 A2968 RMK AO2 T02450131
KTKC 201913Z AUTO 20018G29KT 10SM CLR 24/13 A2969 RMK AO2 T02420134
KTKC 201853Z AUTO 18015G27KT 10SM CLR 24/13 A2970 RMK AO2 T02400133
KTKC 201833Z AUTO 18018G27KT 10SM CLR 24/13 A2971 RMK AO2 T02390130
KTKC 201813Z AUTO 19018G27KT 10SM CLR 23/13 A2972 RMK AO2 T02330130
KTKC 201753Z AUTO 18013G27KT 10SM CLR 23/13 A2973 RMK AO2 T02270129 10227 20143
KTKC 201733Z AUTO 18020G27KT 10SM CLR 22/13 A2974 RMK AO2 T02210128
KTKC 201713Z AUTO 18018G22KT 10SM CLR 21/12 A2975 RMK AO2 T02140123
KTKC 201653Z AUTO 18017G22KT 10SM CLR 22/12 A2976 RMK AO2 T02150124
KTKC 201633Z AUTO 19015G23KT 10SM CLR 20/12 A2977 RMK AO2 T02000120
KTKC 201613Z AUTO 19018G28KT 10SM CLR 20/12 A2978 RMK AO2 T01990119
KTKC 201553Z AUTO 19013G22KT 10SM CLR 19/12 A2979 RMK AO2 T01900115
KTKC 201533Z AUTO 19014G23KT 10SM CLR 19/12 A2979 RMK AO2 T01890115
KTKC 201513Z AUTO 18012G24KT 10SM CLR 18/11 A2980 RMK AO2 T01750113
KTKC 201453Z AUTO 19013G20KT 10SM CLR 17/11 A2981 RMK AO2 T01670111
KTKC 201433Z AUTO 20014G22KT 10SM CLR 17/11 A2982 RMK AO2 T01670110
KTKC 201413Z AUTO 20015G21KT 10SM CLR 16/11 A2982 RMK AO2 T01610107
KTKC 201353Z AUTO 20015G20KT 10SM CLR 15/11 A2982 RMK AO2 T01530105
KTKC 201333Z AUTO 20014G19KT 10SM CLR 15/10 A2982 RMK AO2 T01500102
KTKC 201313Z AUTO 20015G22KT 10SM CLR 15/10 A2982 RMK AO2 T01470101